Time;durP1;ratioP1;P1;durP2;ratioP2;P2;SDS_P1;SDS_P2;PMS_P1;PMS_P2;Temp;Humidity;BMP_temperature;BMP_pressure;BME280_temperature;BME280_humidity;BME280_pressure;Samples;Min_cycle;Max_cycle;Signal;HPM_P1;HPM_P2
2021/04/23 00:01:08;;;;;;;13.30;7.30;;;;;;;3.50;66.48;100202.42;115551;1199;102900;-78
2021/04/23 00:03:35;;;;;;;14.50;6.73;;;;;;;3.50;66.65;100198.98;115550;1198;103082;-77
2021/04/23 00:06:08;;;;;;;13.20;6.40;;;;;;;3.50;66.63;100201.56;115456;1198;103146;-78
2021/04/23 00:08:35;;;;;;;13.90;6.80;;;;;;;3.50;66.52;100191.25;115340;1199;103015;-78
2021/04/23 00:11:06;;;;;;;16.75;6.80;;;;;;;3.50;66.77;100191.25;115348;1200;103040;-78
2021/04/23 00:13:35;;;;;;;14.50;6.35;;;;;;;3.49;66.59;100189.53;115552;1199;103022;-78
2021/04/23 00:16:03;;;;;;;13.10;6.47;;;;;;;3.48;66.56;100188.68;115349;1198;103088;-78
2021/04/23 00:18:31;;;;;;;11.37;6.50;;;;;;;3.48;66.65;100191.26;115548;1200;103043;-78
2021/04/23 00:20:58;;;;;;;14.43;6.57;;;;;;;3.45;66.89;100199.02;115435;1200;103015;-78
2021/04/23 00:23:27;;;;;;;13.67;7.23;;;;;;;3.45;66.60;100193.00;115296;1197;103050;-78
2021/04/23 00:25:55;;;;;;;18.63;6.77;;;;;;;3.45;66.98;100198.16;115338;1199;103123;-78
2021/04/23 00:28:22;;;;;;;14.73;6.57;;;;;;;3.42;66.93;100196.45;115350;1200;102979;-78
2021/04/23 00:30:52;;;;;;;13.73;6.87;;;;;;;3.43;66.75;100192.16;115582;1199;103158;-78
2021/04/23 00:33:22;;;;;;;15.95;7.00;;;;;;;3.40;67.24;100190.41;115494;1198;102980;-78
2021/04/23 00:35:50;;;;;;;16.63;7.47;;;;;;;3.39;66.94;100211.91;115363;1199;103172;-79
2021/04/23 00:38:23;;;;;;;14.23;7.00;;;;;;;3.37;67.15;100197.31;115368;1199;103054;-77
2021/04/23 00:40:57;;;;;;;15.45;7.05;;;;;;;3.36;67.03;100198.17;115311;1199;103038;-78
2021/04/23 00:43:31;;;;;;;13.03;7.40;;;;;;;3.33;67.28;100194.75;115294;1200;103123;-78
2021/04/23 00:45:59;;;;;;;14.17;7.10;;;;;;;3.33;67.21;100196.47;115307;1199;103095;-78
2021/04/23 00:48:28;;;;;;;15.60;7.70;;;;;;;3.31;66.87;100200.77;115303;1200;103031;-77
2021/04/23 00:51:06;;;;;;;13.00;7.27;;;;;;;3.30;67.36;100197.34;115355;1199;103297;-78
2021/04/23 00:53:37;;;;;;;15.17;7.63;;;;;;;3.30;67.24;100209.38;115314;1199;103107;-78
2021/04/23 00:56:08;;;;;;;13.57;7.50;;;;;;;3.29;67.77;100198.20;115328;1199;103156;-78
2021/04/23 00:58:37;;;;;;;15.75;7.45;;;;;;;3.29;67.13;100197.34;115357;1200;103049;-77
2021/04/23 01:01:15;;;;;;;16.50;7.20;;;;;;;3.28;67.29;100206.80;115262;1200;103047;-78
2021/04/23 01:03:42;;;;;;;13.47;6.70;;;;;;;3.29;67.67;100194.77;115296;1198;103121;-77
2021/04/23 01:06:16;;;;;;;15.03;7.23;;;;;;;3.26;67.18;100197.36;115556;1199;103049;-77
2021/04/23 01:08:46;;;;;;;15.37;7.33;;;;;;;3.26;67.10;100193.06;115324;1199;103024;-78
2021/04/23 01:11:15;;;;;;;13.95;7.35;;;;;;;3.24;67.33;100193.94;115404;1198;101996;-77
2021/04/23 01:13:43;;;;;;;17.43;7.83;;;;;;;3.24;67.18;100193.94;115355;1200;102008;-78
2021/04/23 01:16:14;;;;;;;15.77;7.90;;;;;;;3.22;67.22;100195.63;115570;1199;103030;-77
2021/04/23 01:18:41;;;;;;;14.53;7.87;;;;;;;3.22;67.52;100193.06;115368;1199;103152;-77
2021/04/23 01:21:14;;;;;;;14.70;7.27;;;;;;;3.20;67.46;100192.20;115313;1199;102993;-77
2021/04/23 01:23:43;;;;;;;14.93;7.53;;;;;;;3.18;67.24;100199.95;115295;1198;102008;-77
2021/04/23 01:26:13;;;;;;;15.07;7.57;;;;;;;3.17;67.58;100205.11;115408;1199;103143;-77
2021/04/23 01:28:41;;;;;;;10.90;7.30;;;;;;;3.15;67.07;100202.54;115280;1199;103127;-77
2021/04/23 01:31:13;;;;;;;14.63;7.87;;;;;;;3.15;67.38;100204.26;115309;1199;103082;-77
2021/04/23 01:33:43;;;;;;;15.33;8.40;;;;;;;3.13;67.65;100201.69;115323;1199;103053;-77
2021/04/23 01:36:15;;;;;;;16.43;8.50;;;;;;;3.12;67.30;100212.00;115337;1198;103009;-77
2021/04/23 01:38:45;;;;;;;20.07;8.43;;;;;;;3.09;67.23;100202.56;115330;1199;102988;-78
2021/04/23 01:41:14;;;;;;;17.73;8.57;;;;;;;3.08;67.29;100210.30;115333;1199;103012;-78
2021/04/23 01:43:42;;;;;;;14.00;7.07;;;;;;;3.06;67.18;100204.30;115328;1199;103213;-78
2021/04/23 01:46:11;;;;;;;16.87;8.67;;;;;;;3.04;67.50;100206.85;115565;1199;103041;-78
2021/04/23 01:48:39;;;;;;;13.87;7.43;;;;;;;3.02;67.28;100204.28;115341;1198;103014;-77
2021/04/23 01:51:11;;;;;;;15.57;8.13;;;;;;;3.00;67.58;100212.88;115543;1199;103018;-78
2021/04/23 01:53:38;;;;;;;13.65;7.50;;;;;;;2.97;67.61;100218.90;115310;1199;103110;-76
2021/04/23 01:56:06;;;;;;;18.03;7.87;;;;;;;2.96;67.36;100217.19;115371;1198;102998;-77
2021/04/23 01:58:36;;;;;;;12.33;7.40;;;;;;;2.94;67.53;100212.90;115584;1200;103156;-77
2021/04/23 02:01:06;;;;;;;16.47;7.63;;;;;;;2.91;67.46;100213.77;115344;1199;103062;-78
2021/04/23 02:03:34;;;;;;;17.20;7.77;;;;;;;2.89;67.65;100218.06;115578;1198;103067;-77
2021/04/23 02:06:04;;;;;;;16.70;8.10;;;;;;;2.87;67.57;100219.80;115278;1198;103152;-78
2021/04/23 02:08:32;;;;;;;14.57;7.40;;;;;;;2.86;67.69;100220.63;115360;1199;102986;-77
2021/04/23 02:11:09;;;;;;;14.33;7.17;;;;;;;2.84;67.68;100224.92;115309;1200;103145;-77
2021/04/23 02:13:39;;;;;;;16.13;7.77;;;;;;;2.81;67.90;100219.78;115305;1198;103137;-77
2021/04/23 02:16:08;;;;;;;16.55;7.55;;;;;;;2.81;67.96;100224.08;115290;1200;103091;-77
2021/04/23 02:18:36;;;;;;;16.77;7.70;;;;;;;2.79;68.15;100225.80;115309;1199;102411;-78
2021/04/23 02:21:06;;;;;;;14.87;7.57;;;;;;;2.76;68.05;100226.66;115322;1199;102912;-78
2021/04/23 02:23:34;;;;;;;17.23;8.23;;;;;;;2.74;67.84;100218.08;115535;1198;103066;-78
2021/04/23 02:26:03;;;;;;;15.47;8.37;;;;;;;2.72;67.88;100224.95;115347;1199;103432;-78
2021/04/23 02:28:30;;;;;;;15.60;7.80;;;;;;;2.68;68.04;100224.07;115305;1199;103074;-77
2021/04/23 02:31:01;;;;;;;16.30;7.60;;;;;;;2.66;67.95;100230.08;115284;1199;103015;-77
2021/04/23 02:33:28;;;;;;;14.73;8.27;;;;;;;2.64;68.47;100226.66;115347;1199;103168;-78
2021/04/23 02:35:56;;;;;;;16.90;7.85;;;;;;;2.64;68.06;100231.80;115299;1198;103114;-79
2021/04/23 02:38:25;;;;;;;15.37;8.13;;;;;;;2.63;68.03;100224.94;115454;1199;103478;-77
2021/04/23 02:40:54;;;;;;;15.43;8.20;;;;;;;2.62;68.10;100239.53;115311;1197;103068;-78
2021/04/23 02:43:27;;;;;;;16.30;7.10;;;;;;;2.59;67.86;100238.69;115569;1199;103278;-78
2021/04/23 02:45:55;;;;;;;14.90;8.33;;;;;;;2.57;68.20;100237.83;115326;1200;103185;-78
2021/04/23 02:48:26;;;;;;;15.57;7.77;;;;;;;2.55;67.86;100242.13;115402;1200;102963;-78
2021/04/23 02:50:58;;;;;;;13.75;7.50;;;;;;;2.53;68.46;100247.27;115552;1197;102955;-78
2021/04/23 02:53:26;;;;;;;18.37;8.40;;;;;;;2.50;68.15;100246.39;115317;1200;103125;-78
2021/04/23 02:55:53;;;;;;;14.85;7.50;;;;;;;2.48;68.18;100245.53;115299;1198;103159;-78
2021/04/23 02:58:21;;;;;;;13.20;7.40;;;;;;;2.45;68.40;100248.97;115320;1199;103839;-77
2021/04/23 03:00:57;;;;;;;15.03;7.70;;;;;;;2.41;68.61;100250.69;115319;1199;103066;-77
2021/04/23 03:03:24;;;;;;;14.77;7.63;;;;;;;2.37;68.33;100241.25;115477;1199;103212;-78
2021/04/23 03:05:52;;;;;;;12.63;7.30;;;;;;;2.35;68.26;100245.54;115315;1199;103076;-78
2021/04/23 03:08:19;;;;;;;17.03;7.43;;;;;;;2.33;68.11;100243.80;115318;1199;103108;-78
2021/04/23 03:10:58;;;;;;;16.85;7.80;;;;;;;2.31;68.05;100251.52;115310;1199;103130;-77
2021/04/23 03:13:28;;;;;;;13.57;7.10;;;;;;;2.32;68.31;100249.80;115393;1199;103017;-79
2021/04/23 03:15:57;;;;;;;12.57;7.30;;;;;;;2.30;68.20;100254.95;115375;1199;103143;-77
2021/04/23 03:18:26;;;;;;;13.57;7.20;;;;;;;2.28;68.51;100251.52;115329;1198;103248;-78
2021/04/23 03:20:55;;;;;;;17.33;8.27;;;;;;;2.27;68.19;100266.95;115336;1198;103681;-78
2021/04/23 03:23:23;;;;;;;17.40;7.20;;;;;;;2.26;68.71;100254.95;115405;1200;102817;-78
2021/04/23 03:25:51;;;;;;;15.25;7.80;;;;;;;2.25;68.38;100255.81;115349;1199;102967;-79
2021/04/23 03:28:18;;;;;;;13.27;7.30;;;;;;;2.25;68.60;100253.23;115360;1199;103028;-78
2021/04/23 03:30:46;;;;;;;15.63;7.20;;;;;;;2.25;68.57;100259.23;115344;1198;103131;-78
2021/04/23 03:33:15;;;;;;;13.80;7.53;;;;;;;2.26;68.60;100258.38;115307;1198;102957;-78
2021/04/23 03:35:49;;;;;;;14.27;7.33;;;;;;;2.26;68.09;100260.95;115385;1199;102980;-77
2021/04/23 03:38:18;;;;;;;14.70;6.63;;;;;;;2.26;68.38;100271.25;115317;1198;103098;-78
2021/04/23 03:40:49;;;;;;;11.77;6.13;;;;;;;2.26;68.25;100267.81;115443;1200;102238;-78
2021/04/23 03:43:16;;;;;;;17.13;7.40;;;;;;;2.27;68.34;100283.25;115274;1199;103093;-78
2021/04/23 03:45:44;;;;;;;12.33;6.90;;;;;;;2.27;67.84;100288.41;115299;1198;103149;-78
2021/04/23 03:48:12;;;;;;;15.77;7.47;;;;;;;2.30;67.91;100285.83;115508;1199;103082;-78
2021/04/23 03:50:39;;;;;;;13.83;6.67;;;;;;;2.32;68.19;100291.84;115417;1199;103567;-79
2021/04/23 03:53:09;;;;;;;12.98;6.65;;;;;;;2.36;67.90;100288.44;115344;1199;100732;-79
2021/04/23 03:55:43;;;;;;;12.55;6.95;;;;;;;2.37;67.69;100294.44;115339;1198;103014;-78
2021/04/23 03:58:11;;;;;;;15.37;7.00;;;;;;;2.41;67.88;100302.16;115315;1198;103018;-78
2021/04/23 04:00:54;;;;;;;14.10;7.33;;;;;;;2.46;67.51;100301.30;115345;1199;103120;-78
2021/04/23 04:03:23;;;;;;;13.77;6.77;;;;;;;2.51;67.67;100297.02;115310;1200;103018;-79
2021/04/23 04:05:51;;;;;;;12.90;6.43;;;;;;;2.55;67.28;100293.61;115340;1200;103012;-79
2021/04/23 04:08:18;;;;;;;13.10;7.10;;;;;;;2.62;67.43;100300.47;115345;1199;103164;-79
2021/04/23 04:10:47;;;;;;;13.37;6.50;;;;;;;2.66;66.88;100299.61;115326;1199;103171;-78
2021/04/23 04:13:16;;;;;;;13.77;7.57;;;;;;;2.71;67.12;100303.93;115336;1199;102974;-78
2021/04/23 04:15:44;;;;;;;15.73;7.37;;;;;;;2.76;66.79;100310.80;115352;1199;103072;-77
2021/04/23 04:18:12;;;;;;;15.33;7.03;;;;;;;2.81;66.56;100311.64;115380;1199;103008;-78
2021/04/23 04:20:43;;;;;;;13.30;7.23;;;;;;;2.89;66.57;100320.25;115375;1198;103149;-78
2021/04/23 04:23:14;;;;;;;11.33;6.23;;;;;;;2.96;66.36;100314.23;115512;1199;103297;-78
2021/04/23 04:25:47;;;;;;;14.85;6.75;;;;;;;3.03;65.98;100328.81;115348;1199;103011;-78
2021/04/23 04:28:15;;;;;;;11.87;6.37;;;;;;;3.14;65.68;100324.52;115372;1199;103444;-78
2021/04/23 04:30:43;;;;;;;11.67;6.30;;;;;;;3.26;65.71;100324.52;115381;1199;103117;-78
2021/04/23 04:33:12;;;;;;;13.10;6.27;;;;;;;3.40;65.30;100337.37;115668;1198;103087;-78
2021/04/23 04:35:41;;;;;;;11.73;6.53;;;;;;;3.89;65.12;100335.52;115432;1199;103082;-79
2021/04/23 04:38:10;;;;;;;11.90;6.37;;;;;;;5.09;64.10;100330.51;115509;1199;102985;-79
2021/04/23 04:40:40;;;;;;;10.97;6.47;;;;;;;6.01;62.68;100327.86;115350;1200;103020;-78
2021/04/23 04:43:10;;;;;;;14.43;6.37;;;;;;;6.08;60.83;100326.89;115383;1199;103169;-78
2021/04/23 04:45:38;;;;;;;12.03;5.87;;;;;;;5.98;60.73;100326.17;115371;1199;103031;-78
2021/04/23 04:48:06;;;;;;;10.63;5.53;;;;;;;5.96;59.92;100332.24;115348;1200;103223;-78
2021/04/23 04:50:45;;;;;;;10.33;6.07;;;;;;;6.01;59.93;100336.48;115622;1199;102992;-78
2021/04/23 04:53:13;;;;;;;14.00;7.13;;;;;;;6.16;59.61;100330.26;115334;1199;103009;-77
2021/04/23 04:55:43;;;;;;;14.90;7.13;;;;;;;6.19;59.20;100332.80;115371;1199;103117;-77
2021/04/23 04:58:12;;;;;;;11.97;6.23;;;;;;;6.08;58.82;100345.02;115578;1199;103065;-78
2021/04/23 05:00:42;;;;;;;12.77;6.27;;;;;;;5.97;58.80;100346.90;115273;1198;103124;-77
2021/04/23 05:03:11;;;;;;;16.67;6.80;;;;;;;5.72;58.65;100357.47;115422;1199;103056;-78
2021/04/23 05:05:39;;;;;;;10.00;6.07;;;;;;;5.63;59.12;100359.31;115348;1198;102813;-78
2021/04/23 05:08:07;;;;;;;10.80;6.20;;;;;;;5.54;58.98;100357.66;115314;1198;103008;-78
2021/04/23 05:10:34;;;;;;;13.83;6.40;;;;;;;5.40;59.20;100354.38;115301;1199;103101;-78
2021/04/23 05:13:02;;;;;;;11.40;6.50;;;;;;;5.32;59.73;100361.33;115544;1197;103178;-78
2021/04/23 05:15:29;;;;;;;10.23;5.57;;;;;;;5.27;59.58;100366.55;115337;1199;103211;-77
2021/04/23 05:17:57;;;;;;;13.27;6.67;;;;;;;5.23;59.54;100364.87;115466;1199;103680;-78
2021/04/23 05:20:25;;;;;;;13.27;6.43;;;;;;;5.18;59.55;100366.61;115338;1199;103139;-77
2021/04/23 05:22:53;;;;;;;11.57;6.13;;;;;;;5.20;59.89;100364.02;115361;1199;103052;-78
2021/04/23 05:25:23;;;;;;;11.80;5.70;;;;;;;5.28;59.78;100368.27;115325;1197;103011;-78
2021/04/23 05:27:51;;;;;;;13.15;6.40;;;;;;;5.39;59.82;100361.28;115339;1200;102987;-77
2021/04/23 05:30:26;;;;;;;12.30;6.30;;;;;;;5.52;59.85;100359.41;115314;1200;103017;-78
2021/04/23 05:32:55;;;;;;;12.20;5.93;;;;;;;5.69;59.45;100367.00;115601;1200;103041;-77
2021/04/23 05:35:27;;;;;;;13.23;6.20;;;;;;;5.94;59.36;100363.33;115572;1199;102993;-77
2021/04/23 05:37:56;;;;;;;9.70;5.33;;;;;;;6.21;58.74;100372.48;115383;1199;103018;-78
2021/04/23 05:40:45;;;;;;;12.30;5.65;;;;;;;6.46;58.41;100373.02;115341;1199;103056;-77
2021/04/23 05:43:18;;;;;;;14.60;7.00;;;;;;;6.73;57.99;100366.61;115495;1199;103025;-78
2021/04/23 05:45:48;;;;;;;13.00;7.30;;;;;;;6.84;57.85;100366.46;115407;1199;101242;-77
2021/04/23 05:48:17;;;;;;;15.57;7.47;;;;;;;6.90;57.45;100372.41;115319;1199;101936;-77
2021/04/23 05:50:45;;;;;;;15.90;7.13;;;;;;;6.92;57.14;100372.38;115579;1199;103564;-78
2021/04/23 05:53:13;;;;;;;11.40;6.47;;;;;;;6.98;56.62;100369.67;115331;1199;103022;-77
2021/04/23 05:55:41;;;;;;;14.67;7.23;;;;;;;6.92;56.50;100380.16;115269;1200;103112;-77
2021/04/23 05:58:10;;;;;;;12.83;6.63;;;;;;;6.87;56.74;100387.16;115314;1199;103063;-77
2021/04/23 06:00:43;;;;;;;16.65;7.15;;;;;;;6.94;56.50;100383.58;115320;1200;103015;-79
2021/04/23 06:03:12;;;;;;;10.80;6.23;;;;;;;7.01;56.33;100384.36;115368;1199;103037;-77
2021/04/23 06:05:40;;;;;;;12.10;6.53;;;;;;;7.12;56.00;100382.44;115584;1199;103442;-78
2021/04/23 06:08:10;;;;;;;13.50;7.23;;;;;;;7.26;55.93;100385.67;115345;1200;103190;-77
2021/04/23 06:10:42;;;;;;;11.20;6.55;;;;;;;7.75;55.98;100382.23;115313;1200;103008;-77
2021/04/23 06:13:09;;;;;;;12.30;6.37;;;;;;;8.42;55.21;100393.91;115391;1199;101886;-78
2021/04/23 06:15:37;;;;;;;12.77;6.27;;;;;;;8.51;54.00;100382.48;115395;1197;103076;-78
2021/04/23 06:18:04;;;;;;;14.53;6.57;;;;;;;8.45;53.65;100375.67;115309;1198;104418;-79
2021/04/23 06:20:34;;;;;;;13.30;6.77;;;;;;;8.71;53.77;100381.14;115322;1198;103002;-77
2021/04/23 06:23:03;;;;;;;9.70;6.30;;;;;;;9.18;53.20;100376.59;115539;1199;103032;-78
2021/04/23 06:25:30;;;;;;;10.90;6.37;;;;;;;9.68;52.72;100383.09;115264;1199;103491;-79
2021/04/23 06:27:57;;;;;;;11.20;6.30;;;;;;;10.20;51.58;100384.28;115300;1199;102807;-78
2021/04/23 06:30:28;;;;;;;11.33;5.80;;;;;;;10.49;50.21;100385.24;115295;1198;103024;-78
2021/04/23 06:32:58;;;;;;;11.40;6.03;;;;;;;10.79;50.34;100384.33;115342;1200;103017;-79
2021/04/23 06:35:31;;;;;;;12.43;6.37;;;;;;;11.09;49.22;100379.02;115372;1198;103030;-78
2021/04/23 06:37:59;;;;;;;10.10;6.23;;;;;;;11.37;48.25;100382.45;115325;1199;103051;-79
2021/04/23 06:40:27;;;;;;;14.43;6.03;;;;;;;11.97;47.81;100380.42;115269;1199;103075;-78
2021/04/23 06:42:54;;;;;;;10.85;6.10;;;;;;;12.42;46.85;100356.13;115363;1198;103085;-78
2021/04/23 06:45:23;;;;;;;10.33;5.90;;;;;;;12.70;45.39;100368.07;115306;1199;103049;-78
2021/04/23 06:47:50;;;;;;;10.97;6.53;;;;;;;12.81;45.18;100379.90;115366;1198;103015;-77
2021/04/23 06:50:20;;;;;;;9.97;6.23;;;;;;;12.98;44.56;100372.23;115291;1199;103134;-79
2021/04/23 06:52:49;;;;;;;11.30;5.90;;;;;;;13.73;43.88;100372.61;115329;1199;103088;-79
2021/04/23 06:55:17;;;;;;;13.40;5.77;;;;;;;14.47;42.72;100365.81;115604;1199;103118;-78
2021/04/23 06:57:45;;;;;;;9.10;5.33;;;;;;;14.82;41.87;100368.56;115405;1198;103014;-78
2021/04/23 07:00:24;;;;;;;9.53;5.43;;;;;;;15.04;40.93;100376.25;115289;1199;103021;-79
2021/04/23 07:02:52;;;;;;;12.03;6.27;;;;;;;15.36;39.93;100382.57;115336;1198;103095;-78
2021/04/23 07:05:20;;;;;;;10.37;5.17;;;;;;;15.95;39.77;100378.70;115276;1199;103117;-78
2021/04/23 07:07:48;;;;;;;10.33;5.60;;;;;;;17.15;38.33;100371.27;115316;1200;103028;-79
2021/04/23 07:10:25;;;;;;;10.20;6.13;;;;;;;17.54;38.10;100368.09;115292;1199;103075;-79
2021/04/23 07:12:52;;;;;;;;;;;;;;;17.68;36.36;100364.68;115380;1205;103137;-77
2021/04/23 07:15:22;;;;;;;9.97;5.53;;;;;;;17.64;35.97;100361.35;115337;1199;103181;-78
2021/04/23 07:17:52;;;;;;;9.60;5.37;;;;;;;17.85;36.65;100356.61;115502;1199;103120;-79
2021/04/23 07:20:40;;;;;;;7.90;4.70;;;;;;;17.90;35.05;100351.89;115373;1199;103027;-79
2021/04/23 07:23:08;;;;;;;10.77;4.90;;;;;;;17.40;33.96;100342.53;115283;1198;103008;-79
2021/04/23 07:25:36;;;;;;;8.63;5.30;;;;;;;16.90;35.04;100341.05;115304;1199;103428;-78
2021/04/23 07:28:04;;;;;;;8.40;4.70;;;;;;;16.95;35.75;100353.11;115483;1199;103059;-77
2021/04/23 07:30:35;;;;;;;10.83;4.60;;;;;;;17.08;35.21;100354.13;115273;1199;103906;-78
2021/04/23 07:33:05;;;;;;;7.20;4.37;;;;;;;17.31;33.47;100343.09;115315;1198;103034;-78
2021/04/23 07:35:33;;;;;;;6.45;4.50;;;;;;;17.15;33.92;100342.28;115270;1198;102980;-79
2021/04/23 07:38:01;;;;;;;9.13;4.57;;;;;;;16.86;33.33;100339.51;115322;1199;102951;-78
2021/04/23 07:40:30;;;;;;;7.60;4.23;;;;;;;16.85;33.23;100339.59;115259;1199;103127;-78
2021/04/23 07:43:00;;;;;;;8.73;4.83;;;;;;;16.62;33.81;100351.39;115281;1199;103009;-79
2021/04/23 07:45:38;;;;;;;7.13;4.57;;;;;;;16.40;33.97;100340.35;115319;1199;103038;-78
2021/04/23 07:48:06;;;;;;;7.33;4.53;;;;;;;16.46;33.25;100345.27;115356;1199;103047;-78
2021/04/23 07:50:34;;;;;;;6.40;4.40;;;;;;;17.17;33.48;100345.67;115354;1199;103219;-78
2021/04/23 07:53:01;;;;;;;6.93;3.97;;;;;;;18.56;32.48;100346.02;115354;1200;102987;-79
2021/04/23 07:55:30;;;;;;;8.73;4.20;;;;;;;19.90;29.41;100334.45;115240;1198;103057;-79
2021/04/23 07:57:58;;;;;;;7.50;3.90;;;;;;;21.02;30.15;100334.42;115350;1199;103518;-78
2021/04/23 08:00:26;;;;;;;5.37;3.60;;;;;;;21.72;26.43;100329.09;115515;1198;103184;-79
2021/04/23 08:02:54;;;;;;;7.50;4.20;;;;;;;21.52;27.76;100332.44;115341;1199;103014;-78
2021/04/23 08:05:25;;;;;;;6.33;3.93;;;;;;;21.17;27.26;100337.72;115261;1199;103448;-78
2021/04/23 08:08:01;;;;;;;6.50;3.60;;;;;;;20.69;28.15;100340.39;115375;1199;103011;-79
2021/04/23 08:10:30;;;;;;;5.87;3.90;;;;;;;20.83;28.28;100340.23;115439;1198;103026;-79
2021/04/23 08:12:58;;;;;;;7.83;3.67;;;;;;;21.21;27.47;100344.51;115293;1198;103076;-78
2021/04/23 08:15:26;;;;;;;7.43;3.50;;;;;;;21.85;28.11;100355.55;115284;1200;103047;-79
2021/04/23 08:17:55;;;;;;;8.40;4.03;;;;;;;22.08;25.83;100344.01;115318;1200;103017;-79
2021/04/23 08:20:23;;;;;;;6.20;4.10;;;;;;;22.29;26.15;100346.81;115285;1200;103245;-79
2021/04/23 08:22:51;;;;;;;6.63;3.37;;;;;;;22.63;25.88;100321.03;115273;1199;103216;-79
2021/04/23 08:25:20;;;;;;;6.37;3.30;;;;;;;22.82;24.86;100321.25;115310;1198;103187;-78
2021/04/23 08:27:49;;;;;;;7.33;3.47;;;;;;;22.46;25.58;100345.47;115290;1199;103012;-79
2021/04/23 08:30:18;;;;;;;7.07;3.93;;;;;;;22.31;23.86;100336.90;115628;1199;103092;-78
2021/04/23 08:32:45;;;;;;;6.87;3.40;;;;;;;22.47;25.33;100339.18;115389;1199;103288;-79
2021/04/23 08:35:13;;;;;;;9.30;3.33;;;;;;;22.69;24.90;100325.84;115510;1199;103459;-79
2021/04/23 08:37:41;;;;;;;8.20;3.35;;;;;;;23.08;24.25;100324.41;115343;1199;102870;-79
2021/04/23 08:40:12;;;;;;;6.53;3.40;;;;;;;23.41;22.78;100315.42;115489;1197;102066;-79
2021/04/23 08:42:39;;;;;;;6.07;3.30;;;;;;;23.59;23.05;100312.20;115298;1199;103236;-79
2021/04/23 08:45:10;;;;;;;5.80;3.30;;;;;;;23.85;23.97;100332.09;115390;1198;103083;-79
2021/04/23 08:47:38;;;;;;;8.37;3.33;;;;;;;24.06;23.05;100310.77;115320;1199;103037;-79
2021/04/23 08:50:14;;;;;;;6.10;3.50;;;;;;;24.01;22.35;100316.48;115287;1199;103072;-79
2021/04/23 08:52:43;;;;;;;5.30;3.50;;;;;;;23.51;21.32;100315.47;115367;1199;103091;-79
2021/04/23 08:55:13;;;;;;;5.70;3.47;;;;;;;22.68;22.75;100312.67;115327;1199;103127;-78
2021/04/23 08:57:41;;;;;;;5.93;3.70;;;;;;;21.58;24.03;100327.53;115309;1200;103027;-78
2021/04/23 09:00:10;;;;;;;6.45;3.85;;;;;;;20.39;24.39;100311.61;115446;1199;103012;-78
2021/04/23 09:02:38;;;;;;;6.63;3.40;;;;;;;19.45;25.87;100322.55;115297;1200;103079;-78
2021/04/23 09:05:07;;;;;;;8.33;4.30;;;;;;;18.69;26.88;100319.70;115309;1199;103015;-78
2021/04/23 09:07:34;;;;;;;7.07;3.73;;;;;;;17.81;27.51;100323.44;115546;1198;103046;-78
2021/04/23 09:10:10;;;;;;;5.10;2.33;;;;;;;16.86;26.35;100323.70;115228;1198;103136;-78
2021/04/23 09:12:37;;;;;;;3.33;2.47;;;;;;;15.84;27.19;100325.83;115272;1199;103392;-78
2021/04/23 09:15:26;;;;;;;6.77;3.27;;;;;;;14.93;28.37;100329.52;115343;1200;103053;-78
2021/04/23 09:18:04;;;;;;;7.20;3.20;;;;;;;13.91;30.12;100348.22;115326;1198;103041;-78
2021/04/23 09:20:31;;;;;;;6.67;3.50;;;;;;;13.08;31.79;100336.04;115499;1199;102980;-78
2021/04/23 09:23:11;;;;;;;5.03;3.17;;;;;;;12.54;33.28;100338.17;115443;1199;103056;-78
2021/04/23 09:25:56;;;;;;;9.83;3.80;;;;;;;12.13;33.66;100331.91;115283;1198;103149;-78
2021/04/23 09:28:42;;;;;;;6.93;3.03;;;;;;;12.27;34.53;100339.24;115351;1199;103108;-78
2021/04/23 09:31:23;;;;;;;9.13;3.40;;;;;;;13.25;34.33;100326.60;115339;1198;103012;-77
2021/04/23 09:33:59;;;;;;;7.20;3.73;;;;;;;14.35;33.36;100323.51;115356;1199;102914;-78
2021/04/23 09:36:36;;;;;;;4.23;2.97;;;;;;;15.21;31.98;100288.73;115320;1200;102983;-78
2021/04/23 09:39:25;;;;;;;5.87;3.20;;;;;;;15.57;31.32;100307.03;115458;1199;103044;-79
2021/04/23 09:42:09;;;;;;;6.23;3.10;;;;;;;15.85;29.88;100294.18;115528;1199;103245;-79
2021/04/23 09:44:37;;;;;;;5.67;2.97;;;;;;;15.27;30.18;100296.33;115275;1200;101315;-78
2021/04/23 09:47:07;;;;;;;4.67;2.93;;;;;;;14.69;30.68;100307.91;115487;1199;103021;-78
2021/04/23 09:49:34;;;;;;;5.20;3.40;;;;;;;14.21;30.97;100297.94;115490;1199;102996;-78
2021/04/23 09:52:06;;;;;;;5.30;3.10;;;;;;;13.78;31.38;100293.77;115328;1199;103104;-78
2021/04/23 09:54:35;;;;;;;8.27;3.50;;;;;;;13.49;31.37;100287.20;115304;1199;103021;-78
2021/04/23 09:57:13;;;;;;;8.50;3.13;;;;;;;13.34;31.69;100280.85;115345;1197;103011;-79
2021/04/23 09:59:54;;;;;;;7.83;3.23;;;;;;;13.12;32.33;100291.36;115271;1199;102064;-78
2021/04/23 10:02:26;;;;;;;7.27;4.17;;;;;;;13.44;32.73;100297.01;115302;1199;103098;-79
2021/04/23 10:04:55;;;;;;;5.60;3.10;;;;;;;14.18;32.35;100284.94;115329;1199;103035;-78
2021/04/23 10:07:27;;;;;;;4.03;2.53;;;;;;;14.92;31.05;100280.55;115247;1200;103018;-79
2021/04/23 10:09:57;;;;;;;4.67;2.20;;;;;;;15.69;30.45;100280.98;115344;1198;103111;-79
2021/04/23 10:12:37;;;;;;;3.65;1.90;;;;;;;16.56;30.55;100284.13;115333;1198;103111;-78
2021/04/23 10:15:12;;;;;;;4.43;1.87;;;;;;;17.15;27.21;100263.22;115324;1199;103267;-79
2021/04/23 10:17:45;;;;;;;3.47;2.10;;;;;;;17.49;27.78;100257.63;115477;1197;103040;-77
2021/04/23 10:20:16;;;;;;;3.25;1.80;;;;;;;18.08;27.93;100271.59;115340;1200;102892;-78
2021/04/23 10:22:43;;;;;;;4.00;2.10;;;;;;;18.36;25.45;100252.22;115285;1198;101937;-79
2021/04/23 10:25:11;;;;;;;2.97;1.80;;;;;;;17.88;25.16;100279.90;115306;1199;103027;-78
2021/04/23 10:27:43;;;;;;;2.75;1.90;;;;;;;17.17;25.55;100314.05;115313;1200;103047;-79
2021/04/23 10:30:14;;;;;;;7.03;2.47;;;;;;;16.53;26.52;100330.86;115553;1200;103451;-78
2021/04/23 10:33:04;;;;;;;10.40;2.13;;;;;;;15.50;29.06;100330.16;115341;1199;103083;-78
2021/04/23 10:35:33;;;;;;;3.97;1.80;;;;;;;14.08;31.00;100368.45;115335;1199;102029;-78
2021/04/23 10:38:08;;;;;;;4.27;2.33;;;;;;;12.87;33.31;100375.27;115360;1199;103506;-77
2021/04/23 10:40:37;;;;;;;4.35;2.20;;;;;;;11.87;36.03;100345.09;115480;1200;102851;-78
2021/04/23 10:43:18;;;;;;;4.80;2.00;;;;;;;10.86;38.86;100396.27;115627;1198;103485;-79
2021/04/23 10:46:14;;;;;;;3.97;1.67;;;;;;;10.07;39.48;100408.15;115515;1199;103024;-78
2021/04/23 10:48:43;;;;;;;3.23;1.83;;;;;;;9.26;40.93;100405.88;115348;1199;103015;-78
2021/04/23 10:51:31;;;;;;;3.27;1.93;;;;;;;8.70;42.55;100420.19;115671;1200;103076;-79
2021/04/23 10:54:19;;;;;;;3.03;2.03;;;;;;;8.11;44.88;100428.29;115340;1199;103094;-78
2021/04/23 10:56:51;;;;;;;3.87;2.27;;;;;;;7.55;48.65;100431.91;115393;1199;103535;-78
2021/04/23 10:59:31;;;;;;;4.53;2.57;;;;;;;7.11;47.24;100443.83;115355;1199;102919;-78
2021/04/23 11:02:16;;;;;;;5.30;2.00;;;;;;;6.86;48.42;100439.89;115583;1199;103041;-79
2021/04/23 11:04:55;;;;;;;3.57;2.00;;;;;;;6.73;49.55;100433.14;115551;1199;103058;-78
2021/04/23 11:07:22;;;;;;;4.70;2.17;;;;;;;6.71;50.21;100424.53;115373;1199;103168;-78
2021/04/23 11:10:05;;;;;;;6.20;2.57;;;;;;;6.74;50.18;100421.89;115409;1199;103091;-78
2021/04/23 11:12:32;;;;;;;4.90;2.67;;;;;;;6.76;52.32;100430.51;115396;1199;101912;-78
2021/04/23 11:15:16;;;;;;;5.13;2.63;;;;;;;6.70;50.84;100446.15;115375;1199;103088;-78
2021/04/23 11:17:44;;;;;;;5.50;2.60;;;;;;;6.68;51.56;100450.50;115591;1199;103054;-77
2021/04/23 11:20:25;;;;;;;3.70;2.80;;;;;;;6.63;52.16;100447.95;115345;1199;103075;-79
2021/04/23 11:22:58;;;;;;;5.97;3.63;;;;;;;6.59;53.27;100460.09;115391;1197;103044;-79
2021/04/23 11:25:26;;;;;;;6.40;3.27;;;;;;;6.54;55.02;100451.52;115442;1199;102819;-79